Airfield :
LOGIN :

Register | Disclaimer

   EN    FR    IT 

 










Legend :    VFR   Marginal VFR   IFR   Intensive IFR   Very Intensive IFR
Visi :
Ceiling :
>= 8 km
>= 3000ft
5 to 8 km
1000 to 3000 ft
1500m to 5 km
500 to 1000 ft
800 to 1500m
200 to 500 ft
< 800m
< 200 ft
Symbols :   Thunderstorms  Fog  Heavy snow  Heavy precipitations  Wind > 20 kt
SIGMETs :     Misc.  Thunderstorms  Icing  Turbulence  Mountain Waves  Volcanic Ashes







- Airport Elevation : 527 ft
- IATA code : DBV


LDDU - Dubrovnik

CURRENT METAR :
  • 200530Z 07005KT 030V110 CAVOK 23/12 Q1018 NOSIG

EXPIRED METARs :
  • 200500Z 09007KT 060V120 CAVOK 20/13 Q1018 NOSIG
  • 200430Z 09005KT CAVOK 20/13 Q1018 NOSIG
  • 200400Z 08006KT 060V120 CAVOK 19/14 Q1018 NOSIG
  • 200330Z 08006KT CAVOK 19/14 Q1018 NOSIG
  • 200300Z 09006KT CAVOK 18/15 Q1018 NOSIG

TAF TAF LDDU
Valid from the 20 at 06:00 until the 21 at 06:00 UTC


200525Z 2006/2106 09005KT CAVOK TX26/2013Z TN19/2104Z
BECMG 2012/2014 30011KT
BECMG 2018/2020 VRB02KT
No reported NOTAMs for that airfield.



MET'MAP, your aeronautical weather chart ! - Copyright ORBIFLY December 2007 - Disclaimer

ORBIFLY MET'MAP TEAM :

Programming & Development : Alexandra Zaïnal
Concept & Development : Baudouin d'Aumeries
Co-Development & Prog : Marc-Olivier Méhu
Technical & hardware support : Manuel Goepfert

Contact : metmap@orbifly.com




SOURCES & CREDITS :

   NOAA